createdAt,value
2022-12-20T00:01:17.360Z,15.43
2022-12-20T00:03:44.638Z,14.63
2022-12-20T00:06:12.826Z,9.97
2022-12-20T00:08:39.636Z,12.00
2022-12-20T00:11:08.419Z,11.17
2022-12-20T00:13:36.002Z,14.53
2022-12-20T00:16:09.968Z,17.93
2022-12-20T00:18:37.398Z,13.67
2022-12-20T00:21:05.723Z,13.00
2022-12-20T00:23:32.316Z,11.40
2022-12-20T00:26:07.720Z,12.17
2022-12-20T00:28:35.634Z,12.77
2022-12-20T00:31:04.410Z,18.77
2022-12-20T00:33:31.164Z,14.50
2022-12-20T00:35:58.419Z,10.20
2022-12-20T00:38:25.938Z,9.77
2022-12-20T00:41:13.811Z,11.97
2022-12-20T00:43:41.660Z,11.33
2022-12-20T00:46:10.711Z,12.60
2022-12-20T00:48:38.198Z,11.80
2022-12-20T00:51:07.433Z,10.40
2022-12-20T00:53:34.871Z,9.50
2022-12-20T00:56:01.900Z,12.83
2022-12-20T00:58:28.826Z,9.93
2022-12-20T01:00:56.877Z,9.37
2022-12-20T01:03:24.624Z,12.70
2022-12-20T01:06:02.002Z,9.73
2022-12-20T01:08:30.299Z,9.07
2022-12-20T01:11:04.483Z,13.30
2022-12-20T01:13:32.353Z,11.60
2022-12-20T01:16:05.723Z,10.43
2022-12-20T01:18:32.599Z,11.33
2022-12-20T01:21:04.697Z,9.80
2022-12-20T01:23:31.761Z,10.73
2022-12-20T01:26:04.703Z,12.63
2022-12-20T01:28:32.406Z,10.23
2022-12-20T01:30:58.843Z,9.93
2022-12-20T01:33:25.277Z,9.43
2022-12-20T01:35:59.667Z,12.10
2022-12-20T01:38:26.978Z,11.50
2022-12-20T01:40:53.999Z,10.70
2022-12-20T01:43:21.662Z,16.63
2022-12-20T01:45:48.373Z,10.27
2022-12-20T01:48:24.764Z,11.27
2022-12-20T01:50:52.313Z,11.20
2022-12-20T01:53:23.081Z,11.30
2022-12-20T01:55:49.909Z,9.17
2022-12-20T01:58:19.896Z,14.50
2022-12-20T02:00:47.028Z,9.73
2022-12-20T02:03:15.375Z,9.60
2022-12-20T02:05:45.395Z,11.27
2022-12-20T02:08:14.600Z,10.47
2022-12-20T02:11:20.340Z,12.10
2022-12-20T02:13:49.723Z,10.73
2022-12-20T02:16:23.728Z,9.50
2022-12-20T02:19:02.740Z,9.43
2022-12-20T02:21:39.590Z,12.20
2022-12-20T02:24:12.134Z,11.00
2022-12-20T02:27:14.843Z,9.60
2022-12-20T02:30:20.922Z,11.60
2022-12-20T02:33:05.168Z,11.70
2022-12-20T02:35:35.792Z,10.60
2022-12-20T02:38:05.320Z,9.30
2022-12-20T02:40:43.081Z,10.70
2022-12-20T02:43:45.793Z,11.87
2022-12-20T02:46:13.865Z,9.23
2022-12-20T02:48:41.928Z,9.03
2022-12-20T02:51:09.970Z,12.93
2022-12-20T02:53:38.190Z,9.93
2022-12-20T02:56:21.922Z,10.03
2022-12-20T02:58:53.251Z,11.93
2022-12-20T03:01:34.806Z,11.57
2022-12-20T03:04:03.044Z,10.93
2022-12-20T03:06:30.731Z,9.87
2022-12-20T03:08:57.462Z,9.93
2022-12-20T03:11:23.990Z,13.40
2022-12-20T03:13:50.622Z,10.37
2022-12-20T03:16:17.133Z,11.17
2022-12-20T03:18:45.961Z,10.07
2022-12-20T03:21:12.648Z,9.83
2022-12-20T03:23:39.102Z,11.60
2022-12-20T03:26:05.877Z,13.00
2022-12-20T03:28:32.319Z,12.00
2022-12-20T03:30:58.813Z,11.37
2022-12-20T03:33:25.482Z,14.30
2022-12-20T03:35:51.873Z,10.40
2022-12-20T03:38:18.417Z,12.37
2022-12-20T03:40:44.894Z,9.47
2022-12-20T03:43:11.298Z,11.00
2022-12-20T03:45:37.761Z,10.20
2022-12-20T03:48:04.217Z,9.43
2022-12-20T03:50:31.472Z,11.00
2022-12-20T03:52:58.087Z,12.00
2022-12-20T03:55:24.510Z,11.37
2022-12-20T03:57:50.917Z,12.33
2022-12-20T04:00:17.885Z,12.70
2022-12-20T04:02:44.530Z,13.03
2022-12-20T04:05:11.166Z,13.00
2022-12-20T04:07:37.762Z,15.10
2022-12-20T04:10:04.863Z,11.30
2022-12-20T04:12:31.324Z,9.90
2022-12-20T04:14:57.786Z,10.03
2022-12-20T04:17:24.232Z,11.23
2022-12-20T04:19:50.670Z,15.97
2022-12-20T04:22:17.087Z,10.00
2022-12-20T04:24:43.489Z,13.70
2022-12-20T04:27:09.987Z,18.90
2022-12-20T04:29:36.482Z,11.37
2022-12-20T04:32:03.013Z,12.70
2022-12-20T04:34:29.450Z,14.50
2022-12-20T04:36:55.942Z,10.80
2022-12-20T04:39:22.358Z,13.30
2022-12-20T04:41:48.825Z,12.40
2022-12-20T04:44:15.300Z,10.93
2022-12-20T04:46:41.910Z,17.40
2022-12-20T04:49:08.419Z,14.40
2022-12-20T04:51:34.846Z,15.37
2022-12-20T04:54:01.223Z,16.50
2022-12-20T04:56:28.911Z,13.50
2022-12-20T04:58:57.092Z,13.97
2022-12-20T05:01:23.781Z,14.10
2022-12-20T05:03:50.773Z,18.57
2022-12-20T05:06:17.881Z,15.20
2022-12-20T05:08:44.413Z,13.37
2022-12-20T05:11:11.044Z,14.40
2022-12-20T05:13:37.562Z,17.10
2022-12-20T05:16:04.551Z,12.80
2022-12-20T05:18:31.213Z,12.50
2022-12-20T05:21:18.781Z,12.10
2022-12-20T05:24:04.089Z,10.67
2022-12-20T05:26:33.709Z,13.67
2022-12-20T05:29:00.181Z,14.93
2022-12-20T05:31:26.755Z,12.17
2022-12-20T05:33:54.126Z,14.53
2022-12-20T05:36:20.578Z,12.07
2022-12-20T05:38:47.107Z,13.10
2022-12-20T05:41:13.535Z,10.57
2022-12-20T05:43:40.433Z,20.17
2022-12-20T05:46:07.209Z,13.40
2022-12-20T05:48:34.120Z,12.53
2022-12-20T05:51:01.260Z,12.70
2022-12-20T05:53:27.813Z,16.40
2022-12-20T05:55:54.916Z,12.10
2022-12-20T05:58:21.473Z,12.77
2022-12-20T06:00:47.964Z,12.40
2022-12-20T06:03:18.944Z,11.63
2022-12-20T06:05:46.518Z,13.57
2022-12-20T06:08:13.614Z,13.17
2022-12-20T06:10:41.966Z,11.43
2022-12-20T06:13:09.615Z,14.77
2022-12-20T06:15:36.800Z,9.90
2022-12-20T06:18:03.680Z,14.20
2022-12-20T06:20:30.259Z,11.67
2022-12-20T06:22:56.791Z,13.57
2022-12-20T06:25:23.226Z,12.87
2022-12-20T06:27:49.867Z,13.40
2022-12-20T06:30:17.173Z,10.33
2022-12-20T06:32:43.621Z,12.00
2022-12-20T06:35:10.086Z,10.67
2022-12-20T06:37:36.660Z,14.63
2022-12-20T06:40:04.460Z,11.73
2022-12-20T06:42:31.020Z,12.47
2022-12-20T06:45:00.749Z,12.83
2022-12-20T06:47:27.189Z,12.20
2022-12-20T06:49:53.631Z,11.33
2022-12-20T06:52:20.150Z,12.00
2022-12-20T06:54:46.779Z,9.90
2022-12-20T06:57:13.243Z,12.50
2022-12-20T06:59:39.642Z,11.67
2022-12-20T07:02:08.108Z,13.37
2022-12-20T07:04:35.589Z,9.83
2022-12-20T07:07:02.085Z,13.10
2022-12-20T07:09:28.548Z,11.73
2022-12-20T07:11:54.957Z,10.77
2022-12-20T07:14:21.401Z,15.00
2022-12-20T07:16:48.029Z,8.87
2022-12-20T07:19:15.490Z,11.30
2022-12-20T07:21:42.976Z,12.47
2022-12-20T07:24:10.283Z,11.33
2022-12-20T07:26:36.956Z,13.33
2022-12-20T07:29:04.044Z,12.67
2022-12-20T07:31:30.721Z,17.57
2022-12-20T07:33:57.428Z,16.23
2022-12-20T07:36:23.857Z,10.77
2022-12-20T07:38:51.297Z,10.43
2022-12-20T07:41:19.232Z,10.20
2022-12-20T07:43:46.108Z,11.80
2022-12-20T07:46:16.342Z,12.17
2022-12-20T07:48:44.581Z,12.37
2022-12-20T07:51:18.502Z,9.03
2022-12-20T07:53:50.161Z,12.70
2022-12-20T07:56:19.716Z,11.37
2022-12-20T07:58:46.703Z,12.07
2022-12-20T08:01:13.918Z,13.07
2022-12-20T08:03:46.597Z,11.53
2022-12-20T08:06:15.478Z,14.37
2022-12-20T08:08:47.440Z,11.53
2022-12-20T08:11:15.018Z,11.60
2022-12-20T08:13:46.320Z,10.93
2022-12-20T08:16:13.825Z,13.10
2022-12-20T08:18:45.368Z,13.30
2022-12-20T08:21:13.078Z,12.30
2022-12-20T08:23:39.588Z,8.87
2022-12-20T08:26:06.925Z,10.10
2022-12-20T08:28:33.363Z,13.40
2022-12-20T08:31:05.411Z,10.13
2022-12-20T08:33:36.097Z,11.60
2022-12-20T08:36:06.520Z,19.23
2022-12-20T08:38:33.706Z,19.83
2022-12-20T08:41:05.671Z,13.70
2022-12-20T08:43:33.853Z,12.40
2022-12-20T08:46:00.815Z,10.30
2022-12-20T08:48:30.004Z,12.93
2022-12-20T08:50:58.558Z,13.63
2022-12-20T08:53:25.370Z,10.23
2022-12-20T08:55:52.032Z,13.27
2022-12-20T08:58:18.964Z,12.90
2022-12-20T09:00:46.808Z,12.10
2022-12-20T09:03:14.236Z,13.83
2022-12-20T09:05:46.208Z,11.23
2022-12-20T09:08:16.806Z,12.00
2022-12-20T09:10:43.722Z,11.00
2022-12-20T09:13:11.061Z,11.00
2022-12-20T09:15:37.976Z,10.13
2022-12-20T09:18:07.542Z,10.00
2022-12-20T09:20:34.074Z,11.63
2022-12-20T09:23:00.778Z,9.97
2022-12-20T09:25:28.297Z,12.13
2022-12-20T09:27:56.560Z,13.10
2022-12-20T09:30:23.583Z,16.93
2022-12-20T09:32:50.098Z,10.67
2022-12-20T09:35:22.577Z,11.40
2022-12-20T09:37:49.634Z,13.57
2022-12-20T09:40:22.153Z,11.03
2022-12-20T09:42:50.236Z,16.50
2022-12-20T09:45:29.555Z,10.53
2022-12-20T09:47:56.022Z,11.53
2022-12-20T09:50:38.085Z,16.27
2022-12-20T09:53:33.958Z,14.07
2022-12-20T09:56:12.818Z,11.53
2022-12-20T09:58:48.348Z,13.53
2022-12-20T10:01:24.678Z,9.90
2022-12-20T10:03:52.802Z,11.80
2022-12-20T10:06:46.694Z,10.60
2022-12-20T10:09:42.837Z,11.63
2022-12-20T10:12:24.337Z,10.77
2022-12-20T10:14:53.809Z,10.17
2022-12-20T10:17:34.040Z,12.20
2022-12-20T10:20:15.051Z,13.90
2022-12-20T10:22:54.378Z,9.97
2022-12-20T10:25:23.924Z,16.57
2022-12-20T10:27:56.963Z,15.10
2022-12-20T10:30:25.684Z,9.67
2022-12-20T10:32:54.520Z,11.43
2022-12-20T10:35:31.768Z,12.33
2022-12-20T10:38:08.498Z,12.63
2022-12-20T10:43:40.572Z,11.27
2022-12-20T10:46:08.828Z,14.67
2022-12-20T10:48:43.895Z,13.80
2022-12-20T10:51:15.434Z,12.13
2022-12-20T10:53:54.628Z,14.20
2022-12-20T10:56:22.367Z,10.23
2022-12-20T10:59:18.098Z,17.70
2022-12-20T11:01:47.255Z,12.10
2022-12-20T11:04:30.449Z,11.30
2022-12-20T11:06:58.262Z,9.60
2022-12-20T11:09:32.652Z,9.83
2022-12-20T11:12:12.565Z,11.63
2022-12-20T11:14:40.281Z,13.10
2022-12-20T11:17:38.634Z,13.70
2022-12-20T11:20:16.559Z,9.97
2022-12-20T11:23:12.906Z,14.13
2022-12-20T11:25:47.528Z,10.13
2022-12-20T11:28:32.881Z,11.00
2022-12-20T11:31:16.290Z,11.37
2022-12-20T11:34:09.541Z,10.73
2022-12-20T11:36:49.631Z,9.30
2022-12-20T11:39:38.788Z,10.73
2022-12-20T11:42:47.369Z,10.27
2022-12-20T11:45:30.543Z,10.10
2022-12-20T11:48:21.933Z,10.43
2022-12-20T11:51:20.125Z,10.10
2022-12-20T11:54:13.536Z,14.10
2022-12-20T11:56:45.019Z,9.10
2022-12-20T11:59:14.521Z,13.00
2022-12-20T12:01:46.725Z,10.40
2022-12-20T12:04:25.423Z,10.80
2022-12-20T12:07:17.516Z,15.00
2022-12-20T12:10:24.696Z,10.17
2022-12-20T12:13:03.279Z,9.23
2022-12-20T12:15:46.497Z,11.80
2022-12-20T12:18:25.114Z,13.20
2022-12-20T12:21:08.940Z,11.90
2022-12-20T12:23:55.647Z,17.90
2022-12-20T12:26:24.262Z,11.07
2022-12-20T12:29:06.261Z,11.53
2022-12-20T12:31:40.368Z,10.77
2022-12-20T12:34:34.966Z,14.73
2022-12-20T12:37:20.228Z,13.23
2022-12-20T12:40:00.177Z,9.37
2022-12-20T12:42:53.893Z,11.07
2022-12-20T12:45:26.416Z,13.30
2022-12-20T12:47:57.235Z,12.60
2022-12-20T12:50:26.755Z,12.53
2022-12-20T12:52:57.302Z,9.80
2022-12-20T12:55:40.359Z,12.13
2022-12-20T12:58:22.968Z,11.03
2022-12-20T13:01:10.932Z,19.47
2022-12-20T13:03:52.727Z,11.60
2022-12-20T13:06:25.278Z,15.50
2022-12-20T13:09:03.779Z,11.27
2022-12-20T13:11:44.210Z,16.00
2022-12-20T13:14:25.230Z,14.90
2022-12-20T13:17:23.915Z,12.80
2022-12-20T13:19:54.730Z,10.30
2022-12-20T13:22:25.565Z,13.17
2022-12-20T13:25:04.008Z,11.83
2022-12-20T13:27:35.564Z,14.13
2022-12-20T13:30:10.043Z,11.93
2022-12-20T13:32:48.795Z,13.10
2022-12-20T13:35:24.308Z,13.67
2022-12-20T13:37:55.173Z,14.93
2022-12-20T13:40:43.622Z,14.30
2022-12-20T13:43:19.325Z,12.93
2022-12-20T13:46:00.770Z,13.27
2022-12-20T13:48:39.483Z,13.93
2022-12-20T13:51:10.222Z,15.50
2022-12-20T13:53:51.804Z,18.87
2022-12-20T13:56:27.352Z,17.73
2022-12-20T13:59:03.235Z,12.23
2022-12-20T14:01:31.255Z,15.60
2022-12-20T14:03:58.248Z,16.37
2022-12-20T14:06:27.524Z,20.67
2022-12-20T14:08:54.310Z,13.30
2022-12-20T14:11:26.679Z,15.47
2022-12-20T14:13:58.270Z,16.30
2022-12-20T14:16:26.825Z,15.93
2022-12-20T14:19:04.563Z,13.97
2022-12-20T14:21:33.808Z,14.47
2022-12-20T14:24:01.263Z,19.03
2022-12-20T14:26:30.781Z,15.43
2022-12-20T14:29:00.011Z,19.53
2022-12-20T14:31:39.299Z,17.30
2022-12-20T14:34:05.706Z,14.20
2022-12-20T14:36:32.413Z,17.27
2022-12-20T14:38:59.334Z,17.37
2022-12-20T14:41:38.219Z,17.37
2022-12-20T14:44:07.783Z,14.63
2022-12-20T14:46:35.758Z,14.87
2022-12-20T14:49:22.857Z,17.97
2022-12-20T14:51:50.473Z,13.30
2022-12-20T14:57:25.555Z,14.20
2022-12-20T15:00:07.272Z,15.63
2022-12-20T15:02:59.610Z,18.47
2022-12-20T15:05:35.970Z,15.90
2022-12-20T15:08:11.961Z,13.80
2022-12-20T15:10:38.830Z,16.93
2022-12-20T15:13:11.959Z,12.80
2022-12-20T15:15:38.563Z,16.20
2022-12-20T15:18:13.338Z,14.50
2022-12-20T15:20:41.974Z,17.03
2022-12-20T15:23:20.501Z,15.93
2022-12-20T15:25:47.968Z,18.27
2022-12-20T15:28:20.707Z,20.27
2022-12-20T15:31:01.370Z,17.47
2022-12-20T15:33:32.335Z,24.53
2022-12-20T15:35:58.833Z,26.37
2022-12-20T15:38:47.516Z,16.63
2022-12-20T15:41:25.378Z,14.30
2022-12-20T15:43:55.856Z,17.50
2022-12-20T15:46:23.394Z,13.53
2022-12-20T15:48:50.053Z,13.10
2022-12-20T15:51:40.436Z,16.90
2022-12-20T15:54:14.944Z,15.50
2022-12-20T15:56:41.412Z,18.07
2022-12-20T15:59:24.767Z,15.10
2022-12-20T16:01:54.748Z,15.00
2022-12-20T16:04:22.593Z,14.30
2022-12-20T16:06:51.003Z,11.97
2022-12-20T16:09:18.017Z,16.93
2022-12-20T16:11:44.785Z,13.70
2022-12-20T16:14:16.601Z,12.93
2022-12-20T16:16:44.367Z,12.80
2022-12-20T16:19:11.279Z,11.23
2022-12-20T16:21:49.687Z,14.93
2022-12-20T16:24:19.204Z,20.27
2022-12-20T16:26:46.462Z,21.63
2022-12-20T16:29:12.934Z,14.37
2022-12-20T16:31:42.323Z,15.63
2022-12-20T16:34:18.646Z,19.90
2022-12-20T16:36:46.422Z,18.90
2022-12-20T16:39:12.828Z,16.73
2022-12-20T16:41:41.273Z,21.83
2022-12-20T16:44:14.095Z,14.17
2022-12-20T16:46:40.689Z,14.20
2022-12-20T16:49:13.514Z,17.83
2022-12-20T16:51:48.438Z,17.00
2022-12-20T16:54:21.051Z,15.67
2022-12-20T16:56:52.025Z,13.97
2022-12-20T16:59:21.639Z,12.50
2022-12-20T17:01:51.871Z,19.23
2022-12-20T17:04:19.694Z,20.60
2022-12-20T17:06:46.743Z,25.70
2022-12-20T17:11:58.816Z,18.67
2022-12-20T17:14:25.288Z,19.10
2022-12-20T17:16:51.789Z,16.17
2022-12-20T17:19:18.328Z,15.87
2022-12-20T17:24:32.246Z,14.80
2022-12-20T17:26:58.727Z,14.17
2022-12-20T17:29:25.173Z,25.73
2022-12-20T17:31:51.924Z,17.87
2022-12-20T17:34:30.223Z,17.23
2022-12-20T17:36:58.012Z,18.87
2022-12-20T17:39:25.470Z,13.60
2022-12-20T17:41:55.405Z,16.93
2022-12-20T17:44:24.930Z,18.07
2022-12-20T17:46:51.961Z,16.00
2022-12-20T17:49:19.657Z,14.23
2022-12-20T17:51:46.615Z,16.73
2022-12-20T17:54:18.949Z,16.93
2022-12-20T17:56:45.947Z,17.17
2022-12-20T17:59:13.899Z,16.03
2022-12-20T18:01:41.973Z,13.40
2022-12-20T18:04:11.762Z,18.10
2022-12-20T18:06:40.251Z,13.13
2022-12-20T18:09:12.660Z,25.33
2022-12-20T18:11:39.252Z,21.60
2022-12-20T18:14:05.733Z,16.60
2022-12-20T18:16:35.081Z,15.83
2022-12-20T18:19:02.659Z,21.97
2022-12-20T18:21:29.124Z,18.80
2022-12-20T18:23:56.105Z,25.90
2022-12-20T18:26:25.799Z,21.10
2022-12-20T18:29:01.987Z,19.77
2022-12-20T18:31:32.692Z,18.53
2022-12-20T18:34:03.359Z,18.97
2022-12-20T18:36:36.105Z,17.73
2022-12-20T18:39:05.441Z,19.37
2022-12-20T18:41:32.112Z,21.67
2022-12-20T18:44:01.769Z,15.93
2022-12-20T18:46:29.183Z,17.17
2022-12-20T18:48:58.696Z,22.53
2022-12-20T18:51:27.903Z,22.60
2022-12-20T18:53:56.872Z,15.33
2022-12-20T18:56:26.126Z,21.73
2022-12-20T18:58:52.798Z,17.50
2022-12-20T19:01:25.832Z,16.37
2022-12-20T19:03:53.574Z,20.20
2022-12-20T19:06:20.811Z,23.07
2022-12-20T19:08:48.274Z,19.83
2022-12-20T19:11:17.632Z,16.17
2022-12-20T19:13:45.584Z,20.33
2022-12-20T19:16:18.424Z,17.63
2022-12-20T19:18:45.775Z,17.13
2022-12-20T19:21:15.581Z,17.33
2022-12-20T19:23:43.899Z,26.37
2022-12-20T19:26:12.686Z,15.30
2022-12-20T19:28:40.250Z,18.93
2022-12-20T19:31:19.238Z,16.90
2022-12-20T19:33:48.192Z,22.70
2022-12-20T19:36:17.709Z,20.10
2022-12-20T19:38:47.210Z,16.27
2022-12-20T19:41:14.269Z,22.13
2022-12-20T19:43:40.801Z,21.10
2022-12-20T19:46:08.046Z,17.77
2022-12-20T19:48:34.909Z,19.13
2022-12-20T19:51:07.063Z,19.33
2022-12-20T19:53:35.607Z,22.47
2022-12-20T19:56:02.703Z,19.10
2022-12-20T19:58:29.266Z,19.13
2022-12-20T20:00:55.913Z,17.03
2022-12-20T20:03:23.409Z,17.17
2022-12-20T20:05:50.113Z,20.50
2022-12-20T20:08:16.840Z,22.30
2022-12-20T20:10:44.712Z,18.23
2022-12-20T20:13:11.362Z,14.40
2022-12-20T20:15:37.874Z,17.10
2022-12-20T20:18:04.418Z,15.77
2022-12-20T20:20:30.974Z,19.13
2022-12-20T20:22:57.387Z,18.73
2022-12-20T20:25:23.797Z,16.63
2022-12-20T20:27:50.445Z,26.67
2022-12-20T20:30:17.075Z,22.23
2022-12-20T20:32:43.677Z,16.60
2022-12-20T20:35:10.924Z,16.50
2022-12-20T20:37:37.930Z,13.00
2022-12-20T20:40:05.195Z,22.60
2022-12-20T20:42:31.889Z,16.40
2022-12-20T20:44:58.379Z,16.90
2022-12-20T20:47:25.057Z,16.60
2022-12-20T20:49:52.887Z,18.00
2022-12-20T20:52:19.881Z,21.03
2022-12-20T20:54:46.718Z,17.77
2022-12-20T20:57:13.785Z,18.23
2022-12-20T20:59:40.450Z,16.63
2022-12-20T21:02:07.173Z,18.80
2022-12-20T21:04:33.720Z,19.73
2022-12-20T21:07:00.185Z,18.03
2022-12-20T21:09:26.720Z,20.50
2022-12-20T21:11:53.499Z,18.83
2022-12-20T21:14:36.420Z,23.43
2022-12-20T21:17:06.623Z,17.53
2022-12-20T21:19:33.204Z,19.60
2022-12-20T21:21:59.708Z,15.83
2022-12-20T21:24:26.170Z,17.50
2022-12-20T21:26:55.088Z,17.57
2022-12-20T21:29:21.913Z,19.57
2022-12-20T21:31:48.514Z,20.53
2022-12-20T21:34:15.143Z,16.70
2022-12-20T21:36:41.617Z,17.70
2022-12-20T21:39:12.356Z,19.30
2022-12-20T21:41:39.635Z,17.80
2022-12-20T21:44:06.274Z,19.93
2022-12-20T21:46:33.354Z,18.17
2022-12-20T21:49:00.158Z,18.00
2022-12-20T21:51:28.912Z,16.47
2022-12-20T21:53:57.793Z,20.23
2022-12-20T21:56:26.173Z,21.60
2022-12-20T21:58:53.103Z,17.27
2022-12-20T22:01:22.363Z,24.37
2022-12-20T22:04:01.483Z,21.10
2022-12-20T22:06:28.523Z,17.90
2022-12-20T22:08:59.230Z,16.93
2022-12-20T22:11:25.936Z,18.23
2022-12-20T22:13:55.624Z,17.20
2022-12-20T22:16:26.608Z,18.83
2022-12-20T22:18:54.618Z,17.77
2022-12-20T22:21:24.602Z,19.40
2022-12-20T22:23:51.197Z,19.93
2022-12-20T22:26:20.738Z,22.17
2022-12-20T22:28:51.914Z,19.50
2022-12-20T22:31:19.308Z,23.30
2022-12-20T22:33:46.137Z,18.70
2022-12-20T22:36:15.233Z,23.50
2022-12-20T22:38:43.331Z,20.37
2022-12-20T22:41:19.076Z,18.67
2022-12-20T22:43:47.221Z,23.27
2022-12-20T22:46:14.994Z,26.77
2022-12-20T22:48:42.074Z,24.73
2022-12-20T22:51:20.442Z,18.53
2022-12-20T22:53:47.726Z,23.87
2022-12-20T22:56:15.583Z,23.20
2022-12-20T22:58:42.128Z,24.93
2022-12-20T23:01:11.464Z,24.90
2022-12-20T23:03:38.533Z,23.03
2022-12-20T23:06:06.875Z,25.30
2022-12-20T23:08:36.070Z,29.63
2022-12-20T23:11:22.877Z,24.73
2022-12-20T23:14:07.613Z,23.10
2022-12-20T23:16:34.084Z,27.17
2022-12-20T23:19:01.789Z,23.17
2022-12-20T23:21:47.711Z,26.40
2022-12-20T23:24:14.851Z,23.90
2022-12-20T23:26:42.671Z,26.20
2022-12-20T23:29:10.008Z,23.93
2022-12-20T23:31:36.640Z,24.80
2022-12-20T23:34:03.924Z,29.23
2022-12-20T23:36:30.644Z,25.60
2022-12-20T23:38:57.345Z,30.60
2022-12-20T23:41:23.799Z,24.80
2022-12-20T23:43:50.804Z,24.83
2022-12-20T23:46:19.368Z,32.73
2022-12-20T23:48:45.893Z,28.03
2022-12-20T23:51:12.720Z,32.07
2022-12-20T23:53:39.562Z,29.20
2022-12-20T23:56:13.288Z,24.80
2022-12-20T23:58:39.830Z,22.60
